Time;durP1;ratioP1;P1;durP2;ratioP2;P2;SDS_P1;SDS_P2;PMS_P1;PMS_P2;Temp;Humidity;BMP_temperature;BMP_pressure;BME280_temperature;BME280_humidity;BME280_pressure;Samples;Min_cycle;Max_cycle;Signal;HPM_P1;HPM_P2
2022/12/02 00:01:00;;;;;;;;;;;;;;;1.55;100.00;101084.72;5575427;31;34585;-70
2022/12/02 00:04:29;;;;;;;;;;;;;;;1.47;100.00;101088.75;5589582;31;34837;-70
2022/12/02 00:07:37;;;;;;;;;;;;;;;1.64;100.00;101093.81;5589601;31;34761;-71
2022/12/02 00:10:42;;;;;;;;;;;;;;;1.73;100.00;101096.72;5589386;31;34166;-70
2022/12/02 00:13:48;;;;;;;;;;;;;;;1.52;100.00;101095.38;5589593;31;34664;-70
2022/12/02 00:16:55;;;;;;;;;;;;;;;1.57;100.00;101089.88;5588784;31;34924;-70
2022/12/02 00:20:02;;;;;;;;;;;;;;;1.49;100.00;101087.72;5589446;31;34210;-70
2022/12/02 00:23:07;;;;;;;;;;;;;;;1.52;100.00;101092.78;5575432;31;34273;-70
2022/12/02 00:26:13;;;;;;;;;;;;;;;1.40;100.00;101077.84;5589266;31;34094;-70
2022/12/02 00:29:19;;;;;;;;;;;;;;;1.25;100.00;101087.44;5575885;31;34719;-70
2022/12/02 00:32:26;;;;;;;;;;;;;;;1.16;100.00;101093.19;5575393;31;34334;-70
2022/12/02 00:35:36;;;;;;;;;;;;;;;1.15;100.00;101091.53;5589069;31;35086;-70
2022/12/02 00:38:44;;;;;;;;;;;;;;;0.95;100.00;101094.47;5589196;31;34155;-70
2022/12/02 00:41:47;;;;;;;;;;;;;;;0.79;100.00;101091.88;5575401;31;34803;-70
2022/12/02 00:48:17;;;;;;;;;;;;;;;0.84;100.00;101091.63;5588795;31;34857;-70
2022/12/02 00:51:21;;;;;;;;;;;;;;;0.80;100.00;101090.13;5588774;31;34853;-70
2022/12/02 00:54:27;;;;;;;;;;;;;;;0.67;100.00;101084.75;5588812;31;34685;-70
2022/12/02 00:57:31;;;;;;;;;;;;;;;0.50;100.00;101081.41;5588724;31;34137;-70
2022/12/02 01:00:35;;;;;;;;;;;;;;;0.33;100.00;101077.16;5588839;31;34173;-70
2022/12/02 01:03:39;;;;;;;;;;;;;;;0.22;100.00;101075.13;5588577;31;34644;-70
2022/12/02 01:06:49;;;;;;;;;;;;;;;0.26;100.00;101081.00;5574199;31;34856;-70
2022/12/02 01:09:57;;;;;;;;;;;;;;;0.20;100.00;101070.91;5588259;31;34151;-69
2022/12/02 01:13:05;;;;;;;;;;;;;;;0.17;100.00;101074.53;5588477;31;34143;-70
2022/12/02 01:16:11;;;;;;;;;;;;;;;0.16;100.00;101072.84;5574945;31;34866;-70
2022/12/02 01:19:17;;;;;;;;;;;;;;;0.14;100.00;101076.50;5574906;31;34135;-70
2022/12/02 01:22:23;;;;;;;;;;;;;;;0.13;100.00;101070.44;5588129;31;34628;-70
2022/12/02 01:25:30;;;;;;;;;;;;;;;0.17;100.00;101069.31;5588475;31;34130;-70
2022/12/02 01:28:37;;;;;;;;;;;;;;;0.23;100.00;101065.53;5589744;31;34626;-70
2022/12/02 01:31:47;;;;;;;;;;;;;;;0.32;100.00;101065.88;5591000;31;34763;-70
2022/12/02 01:34:56;;;;;;;;;;;;;;;0.40;100.00;101061.06;5590976;31;34255;-71
2022/12/02 01:38:02;;;;;;;;;;;;;;;0.52;100.00;101063.91;5577974;31;33802;-70
2022/12/02 01:41:07;;;;;;;;;;;;;;;0.61;100.00;101065.97;5577048;31;34157;-70
2022/12/02 01:44:17;;;;;;;;;;;;;;;0.69;100.00;101058.53;5590912;31;34141;-70
2022/12/02 01:47:23;;;;;;;;;;;;;;;0.88;100.00;101060.00;5590941;31;34214;-71
2022/12/02 01:50:33;;;;;;;;;;;;;;;0.88;100.00;101059.16;5590789;31;34790;-70
2022/12/02 01:53:38;;;;;;;;;;;;;;;0.92;100.00;101055.44;5590921;31;34526;-70
2022/12/02 01:56:47;;;;;;;;;;;;;;;1.01;100.00;101057.53;5590827;31;34251;-70
2022/12/02 01:59:53;;;;;;;;;;;;;;;1.13;100.00;101064.63;5590767;31;34204;-70
2022/12/02 02:02:59;;;;;;;;;;;;;;;1.22;100.00;101052.78;5590855;31;34147;-70
2022/12/02 02:06:06;;;;;;;;;;;;;;;1.55;100.00;101060.37;5590610;31;34707;-70
2022/12/02 02:09:12;;;;;;;;;;;;;;;1.43;100.00;101063.72;5590568;31;34277;-70
2022/12/02 02:12:19;;;;;;;;;;;;;;;1.31;100.00;101055.69;5590688;31;34979;-70
2022/12/02 02:15:28;;;;;;;;;;;;;;;1.38;100.00;101065.78;5590623;31;34313;-70
2022/12/02 02:18:35;;;;;;;;;;;;;;;1.42;100.00;101057.66;5590678;31;34791;-70
2022/12/02 02:21:47;;;;;;;;;;;;;;;1.28;100.00;101052.41;5590605;31;34279;-70
2022/12/02 02:24:52;;;;;;;;;;;;;;;1.19;100.00;101052.97;5590643;31;34107;-70
2022/12/02 02:28:01;;;;;;;;;;;;;;;1.21;100.00;101053.75;5590592;31;34199;-71
2022/12/02 02:31:08;;;;;;;;;;;;;;;1.07;100.00;101059.75;5590432;31;34224;-70
2022/12/02 02:34:17;;;;;;;;;;;;;;;1.06;100.00;101065.09;5590549;31;34270;-72
2022/12/02 02:37:24;;;;;;;;;;;;;;;1.03;100.00;101063.50;5590540;31;34038;-70
2022/12/02 02:40:32;;;;;;;;;;;;;;;1.11;100.00;101071.72;5590475;31;34262;-72
2022/12/02 02:43:40;;;;;;;;;;;;;;;1.16;100.00;101074.88;5577482;31;34090;-71
2022/12/02 02:46:49;;;;;;;;;;;;;;;1.08;100.00;101073.66;5590411;31;34424;-71
2022/12/02 02:49:57;;;;;;;;;;;;;;;1.07;100.00;101074.59;5590405;31;34283;-71
2022/12/02 02:53:06;;;;;;;;;;;;;;;1.14;100.00;101068.94;5590302;31;34217;-71
2022/12/02 02:56:13;;;;;;;;;;;;;;;1.15;100.00;101060.16;5590317;31;34857;-71
2022/12/02 02:59:20;;;;;;;;;;;;;;;1.24;100.00;101066.59;5590259;31;34803;-72
2022/12/02 03:02:27;;;;;;;;;;;;;;;1.22;100.00;101066.69;5590236;31;34542;-72
2022/12/02 03:05:34;;;;;;;;;;;;;;;1.16;100.00;101068.84;5576116;31;34517;-70
2022/12/02 03:08:42;;;;;;;;;;;;;;;1.15;100.00;101060.16;5590058;31;33961;-70
2022/12/02 03:11:54;;;;;;;;;;;;;;;1.23;100.00;101059.69;5590194;31;34255;-70
2022/12/02 03:14:59;;;;;;;;;;;;;;;1.21;100.00;101057.16;5590155;31;34058;-69
2022/12/02 03:18:06;;;;;;;;;;;;;;;1.20;100.00;101057.28;5576162;31;33152;-69
2022/12/02 03:21:14;;;;;;;;;;;;;;;1.17;100.00;101060.91;5590269;31;34856;-70
2022/12/02 03:24:21;;;;;;;;;;;;;;;1.21;100.00;101061.56;5590177;31;34171;-70
2022/12/02 03:27:30;;;;;;;;;;;;;;;1.20;100.00;101055.50;5590103;31;34837;-70
2022/12/02 03:30:35;;;;;;;;;;;;;;;1.32;100.00;101053.91;5576009;31;32736;-70
2022/12/02 03:33:42;;;;;;;;;;;;;;;1.17;100.00;101055.66;5590016;31;34298;-70
2022/12/02 03:36:50;;;;;;;;;;;;;;;1.18;100.00;101046.91;5589992;31;34136;-70
2022/12/02 03:39:57;;;;;;;;;;;;;;;1.20;100.00;101045.06;5576213;31;35459;-70
2022/12/02 03:43:07;;;;;;;;;;;;;;;1.17;100.00;101047.81;5589856;31;34136;-70
2022/12/02 03:46:13;;;;;;;;;;;;;;;1.15;100.00;101048.88;5589925;31;34683;-70
2022/12/02 03:49:23;;;;;;;;;;;;;;;1.03;100.00;101057.41;5589657;31;34576;-70
2022/12/02 03:52:28;;;;;;;;;;;;;;;0.97;100.00;101050.78;5589127;31;34351;-70
2022/12/02 03:55:37;;;;;;;;;;;;;;;0.98;100.00;101052.47;5589830;31;34713;-70
2022/12/02 03:58:46;;;;;;;;;;;;;;;1.07;100.00;101044.06;5589817;31;34171;-71
2022/12/02 04:01:56;;;;;;;;;;;;;;;1.09;100.00;101050.06;5589711;31;34028;-70
2022/12/02 04:05:05;;;;;;;;;;;;;;;1.03;100.00;101046.97;5589711;31;33936;-70
2022/12/02 04:08:10;;;;;;;;;;;;;;;1.12;100.00;101042.03;5495934;31;2559606;-70
2022/12/02 04:11:21;;;;;;;;;;;;;;;1.12;100.00;101049.88;5589516;31;34200;-70
2022/12/02 04:14:27;;;;;;;;;;;;;;;1.12;100.00;101044.66;5589467;31;34300;-70
2022/12/02 04:17:34;;;;;;;;;;;;;;;1.45;100.00;101046.19;5589511;31;34108;-70
2022/12/02 04:20:39;;;;;;;;;;;;;;;1.39;100.00;101055.25;5589367;31;34110;-70
2022/12/02 04:23:46;;;;;;;;;;;;;;;1.10;100.00;101058.75;5576031;31;32819;-71
2022/12/02 04:26:53;;;;;;;;;;;;;;;1.05;100.00;101056.41;5589217;31;34189;-71
2022/12/02 04:30:01;;;;;;;;;;;;;;;1.05;100.00;101060.78;5589302;31;34135;-70
2022/12/02 04:33:07;;;;;;;;;;;;;;;1.11;100.00;101060.44;5575691;31;34641;-70
2022/12/02 04:36:16;;;;;;;;;;;;;;;1.19;100.00;101055.59;5589113;31;34220;-70
2022/12/02 04:39:23;;;;;;;;;;;;;;;1.11;100.00;101060.44;5588994;31;34128;-70
2022/12/02 04:42:31;;;;;;;;;;;;;;;1.11;100.00;101052.59;5588934;31;34119;-70
2022/12/02 04:45:39;;;;;;;;;;;;;;;1.14;100.00;101053.25;5588920;31;34182;-71
2022/12/02 04:48:48;;;;;;;;;;;;;;;1.17;100.00;101057.44;5588962;31;35499;-71
2022/12/02 04:51:57;;;;;;;;;;;;;;;1.15;100.00;101054.94;5588832;31;34340;-71
2022/12/02 04:55:06;;;;;;;;;;;;;;;1.11;100.00;101053.44;5574850;31;33636;-71
2022/12/02 04:58:12;;;;;;;;;;;;;;;1.17;100.00;101052.22;5588707;31;34168;-70
2022/12/02 05:01:22;;;;;;;;;;;;;;;1.18;100.00;101056.50;5575904;31;34265;-70
2022/12/02 05:04:29;;;;;;;;;;;;;;;1.23;100.00;101054.47;5591192;31;34919;-70
2022/12/02 05:07:44;;;;;;;;;;;;;;;1.24;100.00;101057.00;5591194;31;34609;-71
2022/12/02 05:10:51;;;;;;;;;;;;;;;1.26;100.00;101055.13;5591150;31;34829;-72
2022/12/02 05:13:56;;;;;;;;;;;;;;;1.23;100.00;101050.09;5577601;31;34299;-71
2022/12/02 05:17:04;;;;;;;;;;;;;;;1.17;100.00;101062.66;5576914;31;34318;-71
2022/12/02 05:20:12;;;;;;;;;;;;;;;1.10;100.00;101069.19;5591499;31;34125;-72
2022/12/02 05:23:18;;;;;;;;;;;;;;;1.16;100.00;101063.63;5591109;31;34765;-71
2022/12/02 05:26:25;;;;;;;;;;;;;;;1.13;100.00;101067.25;5591052;31;34819;-70
2022/12/02 05:29:32;;;;;;;;;;;;;;;1.05;100.00;101069.47;5591084;31;34213;-71
2022/12/02 05:32:38;;;;;;;;;;;;;;;1.09;100.00;101077.97;5577672;31;34495;-72
2022/12/02 05:35:43;;;;;;;;;;;;;;;1.08;100.00;101061.44;5591011;31;34956;-72
2022/12/02 05:38:48;;;;;;;;;;;;;;;1.11;100.00;101065.66;5591475;31;34247;-73
2022/12/02 05:41:55;;;;;;;;;;;;;;;1.10;100.00;101067.44;5591214;31;34250;-71
2022/12/02 05:45:06;;;;;;;;;;;;;;;1.37;100.00;101064.09;5590891;31;34751;-71
2022/12/02 05:48:12;;;;;;;;;;;;;;;1.22;100.00;101060.63;5590897;31;34818;-71
2022/12/02 05:51:20;;;;;;;;;;;;;;;1.14;100.00;101061.09;5576944;31;34257;-71
2022/12/02 05:54:25;;;;;;;;;;;;;;;1.05;100.00;101061.63;5591110;31;34207;-72
2022/12/02 05:57:30;;;;;;;;;;;;;;;1.16;100.00;101068.84;5590856;31;34534;-71
2022/12/02 06:00:36;;;;;;;;;;;;;;;1.14;100.00;101078.53;5590570;31;34781;-71
2022/12/02 06:03:42;;;;;;;;;;;;;;;1.23;100.00;101068.38;5577160;31;34508;-70
2022/12/02 06:06:48;;;;;;;;;;;;;;;1.15;100.00;101073.22;5590325;31;34717;-70
2022/12/02 06:09:55;;;;;;;;;;;;;;;1.13;100.00;101071.63;5577109;31;34139;-71
2022/12/02 06:13:03;;;;;;;;;;;;;;;1.19;100.00;101076.50;5575682;31;34765;-70
2022/12/02 06:16:14;;;;;;;;;;;;;;;1.21;100.00;101077.25;5576532;31;35139;-70
2022/12/02 06:19:23;;;;;;;;;;;;;;;1.19;100.00;101074.72;5576601;31;34186;-71
2022/12/02 06:22:31;;;;;;;;;;;;;;;1.17;100.00;101084.41;5590445;31;34282;-70
2022/12/02 06:25:36;;;;;;;;;;;;;;;1.20;100.00;101086.03;5576421;31;34086;-70
2022/12/02 06:28:44;;;;;;;;;;;;;;;1.27;100.00;101095.16;5576819;31;34555;-71
2022/12/02 06:31:48;;;;;;;;;;;;;;;1.19;100.00;101086.94;5590290;31;34242;-70
2022/12/02 06:34:52;;;;;;;;;;;;;;;1.31;100.00;101086.19;5590235;31;34854;-70
2022/12/02 06:37:57;;;;;;;;;;;;;;;1.15;100.00;101091.53;5590113;31;34261;-72
2022/12/02 06:41:09;;;;;;;;;;;;;;;1.25;100.00;101097.87;5589992;31;34828;-72
2022/12/02 06:47:48;;;;;;;;;;;;;;;1.24;100.00;101101.44;5589799;31;34483;-71
2022/12/02 06:50:55;;;;;;;;;;;;;;;1.42;100.00;101096.03;5590129;31;34783;-71
2022/12/02 06:54:03;;;;;;;;;;;;;;;1.33;100.00;101102.66;5576187;31;34003;-71
2022/12/02 06:57:09;;;;;;;;;;;;;;;1.38;100.00;101095.38;5576394;31;34258;-70
2022/12/02 07:00:13;;;;;;;;;;;;;;;1.26;100.00;101098.69;5590185;31;35391;-71
2022/12/02 07:03:40;;;;;;;;;;;;;;;1.35;100.00;101111.25;5590070;31;34227;-71
2022/12/02 07:06:49;;;;;;;;;;;;;;;1.46;100.00;101093.12;5570670;31;34590;-71
2022/12/02 07:09:54;;;;;;;;;;;;;;;1.57;100.00;101097.72;5576079;31;34930;-71
2022/12/02 07:12:57;;;;;;;;;;;;;;;1.63;100.00;101103.44;5589992;31;34152;-71
2022/12/02 07:16:02;;;;;;;;;;;;;;;1.66;100.00;101103.22;5576835;31;34227;-71
2022/12/02 07:19:12;;;;;;;;;;;;;;;1.56;100.00;101104.72;5576075;31;34109;-71
2022/12/02 07:22:23;;;;;;;;;;;;;;;1.72;100.00;101110.72;5575923;31;34146;-71
2022/12/02 07:25:44;;;;;;;;;;;;;;;1.69;100.00;101102.22;5588861;31;34171;-71
2022/12/02 07:28:49;;;;;;;;;;;;;;;1.61;100.00;101101.81;5575987;31;32649;-71
2022/12/02 07:31:53;;;;;;;;;;;;;;;1.93;100.00;101118.19;5589757;31;34722;-71
2022/12/02 07:34:58;;;;;;;;;;;;;;;1.56;100.00;101117.78;5562896;31;34828;-71
2022/12/02 07:38:01;;;;;;;;;;;;;;;1.54;100.00;101116.22;5589797;31;34139;-70
2022/12/02 07:41:05;;;;;;;;;;;;;;;1.70;100.00;101109.09;5589817;31;34109;-70
2022/12/02 07:44:11;;;;;;;;;;;;;;;1.82;100.00;101115.37;5575311;31;34455;-70
2022/12/02 07:47:14;;;;;;;;;;;;;;;1.71;100.00;101121.25;5575561;31;34343;-70
2022/12/02 07:50:19;;;;;;;;;;;;;;;1.68;100.00;101121.47;5575669;31;34248;-71
2022/12/02 07:53:22;;;;;;;;;;;;;;;1.85;100.00;101125.63;5575401;31;34834;-70
2022/12/02 07:56:27;;;;;;;;;;;;;;;2.15;100.00;101126.38;5575784;31;34222;-70
2022/12/02 07:59:31;;;;;;;;;;;;;;;2.21;100.00;101131.22;5589291;31;34457;-70
2022/12/02 08:02:36;;;;;;;;;;;;;;;1.84;100.00;101130.03;5575910;31;34796;-70
2022/12/02 08:05:39;;;;;;;;;;;;;;;1.98;100.00;101127.44;5574844;31;34252;-70
2022/12/02 08:08:42;;;;;;;;;;;;;;;2.23;100.00;101125.91;5589260;31;34283;-71
2022/12/02 08:11:46;;;;;;;;;;;;;;;2.26;100.00;101128.31;5589453;31;34184;-70
2022/12/02 08:14:48;;;;;;;;;;;;;;;2.51;100.00;101121.44;5589236;31;34790;-70
2022/12/02 08:17:55;;;;;;;;;;;;;;;2.33;100.00;101127.81;5589360;31;34298;-70
2022/12/02 08:21:00;;;;;;;;;;;;;;;2.19;100.00;101130.47;5589384;31;34670;-70
2022/12/02 08:24:11;;;;;;;;;;;;;;;2.30;100.00;101132.41;5576182;31;33934;-70
2022/12/02 08:27:14;;;;;;;;;;;;;;;2.61;100.00;101134.78;5575023;31;35175;-71
2022/12/02 08:30:20;;;;;;;;;;;;;;;3.12;100.00;101130.53;5588865;31;34899;-72
2022/12/02 08:33:23;;;;;;;;;;;;;;;3.07;100.00;101132.59;5588955;31;34373;-72
2022/12/02 08:36:28;;;;;;;;;;;;;;;2.90;100.00;101136.34;5589064;31;35100;-70
2022/12/02 08:39:30;;;;;;;;;;;;;;;2.89;100.00;101133.81;5591157;31;34790;-70
2022/12/02 08:42:37;;;;;;;;;;;;;;;3.14;100.00;101125.19;5591238;31;34246;-71
2022/12/02 08:45:42;;;;;;;;;;;;;;;3.15;100.00;101130.31;5591231;31;34172;-71
2022/12/02 08:48:47;;;;;;;;;;;;;;;3.60;100.00;101139.50;5577616;31;34919;-71
2022/12/02 08:51:50;;;;;;;;;;;;;;;3.67;100.00;101142.56;5591288;31;34292;-71
2022/12/02 08:54:56;;;;;;;;;;;;;;;3.32;100.00;101139.69;5577327;31;34831;-71
2022/12/02 08:58:01;;;;;;;;;;;;;;;3.53;100.00;101138.25;5577999;31;33673;-71
2022/12/02 09:01:06;;;;;;;;;;;;;;;3.33;100.00;101138.75;5578019;31;34258;-71
2022/12/02 09:04:10;;;;;;;;;;;;;;;3.72;100.00;101136.03;5590879;31;34865;-71
2022/12/02 09:07:16;;;;;;;;;;;;;;;3.41;100.00;101136.44;5590661;31;34444;-71
2022/12/02 09:10:20;;;;;;;;;;;;;;;3.04;100.00;101136.28;5576562;31;34779;-70
2022/12/02 09:13:24;;;;;;;;;;;;;;;3.20;100.00;101128.22;5590800;31;34351;-71
2022/12/02 09:16:27;;;;;;;;;;;;;;;3.54;100.00;101139.91;5591016;31;34366;-71
2022/12/02 09:19:30;;;;;;;;;;;;;;;3.40;100.00;101138.22;5591405;31;34303;-71
2022/12/02 09:22:33;;;;;;;;;;;;;;;3.38;100.00;101134.03;5591062;31;34599;-71
2022/12/02 09:25:37;;;;;;;;;;;;;;;3.29;100.00;101135.47;5590897;31;34876;-71
2022/12/02 09:28:41;;;;;;;;;;;;;;;3.13;100.00;101129.59;5591109;31;34401;-71
2022/12/02 09:31:45;;;;;;;;;;;;;;;3.06;100.00;101130.94;5577088;31;34208;-71
2022/12/02 09:34:49;;;;;;;;;;;;;;;3.50;100.00;101136.66;5590930;31;33584;-71
2022/12/02 09:37:55;;;;;;;;;;;;;;;3.37;100.00;101129.72;5577186;31;34506;-71
2022/12/02 09:41:00;;;;;;;;;;;;;;;3.05;100.00;101145.81;5577050;31;34304;-71
2022/12/02 09:44:04;;;;;;;;;;;;;;;3.05;100.00;101129.25;5590214;31;34190;-70
2022/12/02 09:47:09;;;;;;;;;;;;;;;3.29;100.00;101132.84;5590627;31;34947;-71
2022/12/02 09:50:14;;;;;;;;;;;;;;;3.62;100.00;101123.66;5590255;31;34753;-71
2022/12/02 09:53:17;;;;;;;;;;;;;;;3.93;100.00;101128.44;5590705;31;34333;-71
2022/12/02 09:56:21;;;;;;;;;;;;;;;4.28;100.00;101121.56;5576826;31;34409;-71
2022/12/02 09:59:25;;;;;;;;;;;;;;;4.01;100.00;101122.69;5590539;31;34241;-72
2022/12/02 10:02:39;;;;;;;;;;;;;;;4.09;98.74;101128.22;5590533;31;34905;-72
2022/12/02 10:05:43;;;;;;;;;;;;;;;4.28;98.22;101120.72;5576440;31;35573;-72
2022/12/02 10:08:47;;;;;;;;;;;;;;;4.17;100.00;101118.84;5576466;31;34306;-72
2022/12/02 10:11:50;;;;;;;;;;;;;;;4.51;99.35;101121.69;5590350;31;34250;-71
2022/12/02 10:14:54;;;;;;;;;;;;;;;4.38;98.47;101116.47;5590282;31;34283;-72
2022/12/02 10:18:05;;;;;;;;;;;;;;;4.26;98.73;101118.19;5563621;31;32931;-71
2022/12/02 10:21:09;;;;;;;;;;;;;;;3.86;100.00;101114.94;5576423;31;35161;-71
2022/12/02 10:24:13;;;;;;;;;;;;;;;3.79;100.00;101116.28;5576438;31;34891;-71
2022/12/02 10:27:28;;;;;;;;;;;;;;;4.15;100.00;101118.13;5590237;31;34235;-71
2022/12/02 10:30:34;;;;;;;;;;;;;;;3.88;100.00;101120.06;5590255;31;34269;-71
2022/12/02 10:33:40;;;;;;;;;;;;;;;3.88;100.00;101117.44;5590267;31;34122;-71
2022/12/02 10:36:43;;;;;;;;;;;;;;;3.94;100.00;101115.22;5576720;31;34339;-71
2022/12/02 10:39:47;;;;;;;;;;;;;;;4.14;100.00;101105.09;5577019;31;35161;-71
2022/12/02 10:43:09;;;;;;;;;;;;;;;4.24;99.10;101112.22;5590632;31;34247;-70
2022/12/02 10:46:13;;;;;;;;;;;;;;;4.26;100.00;101112.94;5590042;31;34355;-71
2022/12/02 10:49:26;;;;;;;;;;;;;;;4.34;99.15;101102.75;5590666;31;34340;-70
2022/12/02 10:52:33;;;;;;;;;;;;;;;4.24;100.00;101099.09;5590235;31;35013;-71
2022/12/02 10:55:38;;;;;;;;;;;;;;;4.43;100.00;101098.59;5590514;31;34873;-71
2022/12/02 10:58:41;;;;;;;;;;;;;;;4.44;98.27;101099.44;5589886;31;34349;-70
2022/12/02 11:01:45;;;;;;;;;;;;;;;3.91;100.00;101101.50;5575792;31;33304;-72
2022/12/02 11:04:50;;;;;;;;;;;;;;;4.03;100.00;101097.97;5590172;31;34873;-71
2022/12/02 11:07:57;;;;;;;;;;;;;;;4.42;100.00;101098.72;5589927;31;34407;-71
2022/12/02 11:11:11;;;;;;;;;;;;;;;4.67;100.00;101094.19;5576046;31;33169;-71
2022/12/02 11:14:34;;;;;;;;;;;;;;;4.52;100.00;101092.69;5590060;31;34296;-70
2022/12/02 11:17:44;;;;;;;;;;;;;;;4.09;100.00;101091.47;5590333;31;33763;-71
2022/12/02 11:20:51;;;;;;;;;;;;;;;4.14;100.00;101090.19;5576087;31;34550;-71
2022/12/02 11:24:14;;;;;;;;;;;;;;;4.46;100.00;101090.50;5576183;31;34224;-71
2022/12/02 11:27:18;;;;;;;;;;;;;;;4.65;97.19;101095.25;5589808;31;34875;-71
2022/12/02 11:30:35;;;;;;;;;;;;;;;4.91;97.06;101085.44;5589583;31;34290;-71
2022/12/02 11:33:42;;;;;;;;;;;;;;;4.70;99.72;101091.31;5563088;31;35725;-70
2022/12/02 11:37:06;;;;;;;;;;;;;;;4.76;100.00;101092.66;5589788;31;34938;-71
2022/12/02 11:40:11;;;;;;;;;;;;;;;4.74;100.00;101086.69;5575519;31;34698;-71
2022/12/02 11:43:32;;;;;;;;;;;;;;;4.55;100.00;101084.56;5589598;31;34543;-71
2022/12/02 11:46:43;;;;;;;;;;;;;;;4.15;100.00;101085.78;5575698;31;34777;-71
2022/12/02 11:49:46;;;;;;;;;;;;;;;4.32;100.00;101082.78;5562871;31;32579;-71
2022/12/02 11:52:53;;;;;;;;;;;;;;;4.30;100.00;101079.44;5576416;31;34938;-70
2022/12/02 11:55:58;;;;;;;;;;;;;;;4.31;100.00;101083.72;5575378;31;37312;-71
2022/12/02 11:59:23;;;;;;;;;;;;;;;4.50;100.00;101080.63;5576315;31;34252;-71
2022/12/02 12:02:26;;;;;;;;;;;;;;;4.22;100.00;101073.87;5589530;31;34722;-72
2022/12/02 12:05:30;;;;;;;;;;;;;;;4.60;100.00;101076.38;5589409;31;34176;-71
2022/12/02 12:08:33;;;;;;;;;;;;;;;4.91;100.00;101086.28;5575647;31;33849;-71
2022/12/02 12:11:38;;;;;;;;;;;;;;;4.87;100.00;101074.31;5588471;31;34797;-71
2022/12/02 12:15:10;;;;;;;;;;;;;;;4.54;100.00;101075.03;5589623;31;35100;-71
2022/12/02 12:18:32;;;;;;;;;;;;;;;4.72;100.00;101073.66;5576441;31;34650;-71
2022/12/02 12:21:41;;;;;;;;;;;;;;;4.95;100.00;101077.22;5575531;31;34287;-71
2022/12/02 12:24:44;;;;;;;;;;;;;;;5.01;100.00;101074.13;5589208;31;34693;-70
2022/12/02 12:27:48;;;;;;;;;;;;;;;4.60;100.00;101074.56;5589281;31;34132;-71
2022/12/02 12:30:52;;;;;;;;;;;;;;;4.50;100.00;101084.09;5575480;31;34219;-71
2022/12/02 12:33:56;;;;;;;;;;;;;;;4.25;100.00;101079.75;5575141;31;32935;-71
2022/12/02 12:36:59;;;;;;;;;;;;;;;4.18;100.00;101075.03;5589018;31;34394;-70
2022/12/02 12:40:03;;;;;;;;;;;;;;;4.02;100.00;101075.28;5588863;31;34276;-70
2022/12/02 12:43:06;;;;;;;;;;;;;;;4.13;100.00;101070.13;5588777;31;34884;-70
2022/12/02 12:46:09;;;;;;;;;;;;;;;4.03;100.00;101073.50;5588737;31;34966;-69
2022/12/02 12:49:12;;;;;;;;;;;;;;;4.04;100.00;101069.94;5588489;31;34140;-71
2022/12/02 12:52:15;;;;;;;;;;;;;;;3.91;100.00;101070.81;5589704;31;34425;-70
2022/12/02 12:55:18;;;;;;;;;;;;;;;3.97;100.00;101064.28;5588347;31;34310;-70
2022/12/02 12:58:22;;;;;;;;;;;;;;;4.15;100.00;101072.66;5588816;31;34805;-70
2022/12/02 13:01:25;;;;;;;;;;;;;;;4.10;100.00;101069.50;5588341;31;34576;-70
2022/12/02 13:04:28;;;;;;;;;;;;;;;3.85;100.00;101073.87;5588485;31;34846;-70
2022/12/02 13:07:31;;;;;;;;;;;;;;;3.85;100.00;101073.03;5588207;31;34562;-70
2022/12/02 13:10:34;;;;;;;;;;;;;;;3.83;100.00;101075.75;5588196;31;34753;-69
2022/12/02 13:13:37;;;;;;;;;;;;;;;3.78;100.00;101083.12;5588298;31;34329;-70
2022/12/02 13:16:40;;;;;;;;;;;;;;;3.83;100.00;101075.75;5587964;31;34650;-70
2022/12/02 13:19:43;;;;;;;;;;;;;;;3.82;100.00;101076.72;5587818;31;34488;-69
2022/12/02 13:22:47;;;;;;;;;;;;;;;3.76;100.00;101077.16;5588632;31;34403;-69
2022/12/02 13:25:50;;;;;;;;;;;;;;;3.72;100.00;101070.44;5590777;31;34577;-69
2022/12/02 13:28:53;;;;;;;;;;;;;;;3.50;100.00;101076.31;5591054;31;34898;-70
2022/12/02 13:31:56;;;;;;;;;;;;;;;3.41;100.00;101074.34;5590973;31;34563;-70
2022/12/02 13:34:59;;;;;;;;;;;;;;;3.32;100.00;101080.22;5591103;31;34846;-70
2022/12/02 13:38:02;;;;;;;;;;;;;;;3.42;100.00;101081.28;5590646;31;34990;-70
2022/12/02 13:41:05;;;;;;;;;;;;;;;3.37;100.00;101078.13;5590896;31;34600;-69
2022/12/02 13:44:09;;;;;;;;;;;;;;;3.43;100.00;101079.50;5590804;31;34834;-70
2022/12/02 13:47:15;;;;;;;;;;;;;;;3.36;100.00;101091.31;5590342;31;34468;-70
2022/12/02 13:50:20;;;;;;;;;;;;;;;3.38;100.00;101092.91;5590200;31;34647;-70
2022/12/02 13:53:27;;;;;;;;;;;;;;;3.18;100.00;101092.56;5590355;31;34215;-70
2022/12/02 13:56:34;;;;;;;;;;;;;;;3.16;100.00;101087.44;5576663;31;34267;-71
2022/12/02 13:59:40;;;;;;;;;;;;;;;2.84;100.00;101104.47;5577032;31;34040;-71
2022/12/02 14:02:46;;;;;;;;;;;;;;;2.77;100.00;101097.94;5576813;31;35841;-70
2022/12/02 14:05:53;;;;;;;;;;;;;;;2.85;100.00;101095.66;5590551;31;34297;-70
2022/12/02 14:08:56;;;;;;;;;;;;;;;2.70;100.00;101107.16;5590470;31;34857;-71
2022/12/02 14:12:02;;;;;;;;;;;;;;;2.71;100.00;101100.97;5590573;31;34247;-70
2022/12/02 14:15:06;;;;;;;;;;;;;;;2.65;100.00;101104.81;5590617;31;34223;-70
2022/12/02 14:18:12;;;;;;;;;;;;;;;2.58;100.00;101103.53;5576234;31;32942;-70
2022/12/02 14:21:17;;;;;;;;;;;;;;;2.48;100.00;101092.81;5590388;31;34813;-70
2022/12/02 14:24:21;;;;;;;;;;;;;;;2.52;100.00;101098.69;5576622;31;33827;-71
2022/12/02 14:27:25;;;;;;;;;;;;;;;2.49;100.00;101106.75;5576265;31;34546;-70
2022/12/02 14:30:29;;;;;;;;;;;;;;;2.46;100.00;101106.94;5590279;31;34677;-70
2022/12/02 14:33:32;;;;;;;;;;;;;;;2.52;100.00;101106.53;5576280;31;35061;-70
2022/12/02 14:36:56;;;;;;;;;;;;;;;2.45;100.00;101111.34;5576091;31;34574;-70
2022/12/02 14:40:03;;;;;;;;;;;;;;;2.46;100.00;101113.03;5575965;31;34873;-71
2022/12/02 14:43:07;;;;;;;;;;;;;;;2.49;100.00;101112.81;5590529;31;34245;-70
2022/12/02 14:46:17;;;;;;;;;;;;;;;2.61;100.00;101112.03;5589995;31;34330;-71
2022/12/02 14:49:22;;;;;;;;;;;;;;;2.48;100.00;101116.38;5589962;31;35041;-71
2022/12/02 14:52:44;;;;;;;;;;;;;;;2.47;100.00;101108.66;5590038;31;34160;-72
2022/12/02 14:55:47;;;;;;;;;;;;;;;2.38;100.00;101115.28;5590076;31;35504;-70
2022/12/02 14:58:50;;;;;;;;;;;;;;;2.38;100.00;101107.44;5589749;31;34708;-71
2022/12/02 15:01:54;;;;;;;;;;;;;;;2.35;100.00;101107.63;5590264;31;34159;-71
2022/12/02 15:04:58;;;;;;;;;;;;;;;2.30;100.00;101109.69;5589565;31;34970;-71
2022/12/02 15:08:02;;;;;;;;;;;;;;;2.28;100.00;101111.56;5589701;31;34861;-71
2022/12/02 15:11:06;;;;;;;;;;;;;;;2.15;100.00;101111.50;5590370;31;34365;-70
2022/12/02 15:14:10;;;;;;;;;;;;;;;2.13;100.00;101110.75;5589703;31;34695;-70
2022/12/02 15:17:16;;;;;;;;;;;;;;;2.19;100.00;101120.84;5576217;31;34010;-70
2022/12/02 15:20:22;;;;;;;;;;;;;;;2.24;100.00;101127.56;5589600;31;34353;-71
2022/12/02 15:23:28;;;;;;;;;;;;;;;2.29;100.00;101126.34;5589696;31;34894;-70
2022/12/02 15:26:31;;;;;;;;;;;;;;;2.32;100.00;101136.62;5589536;31;34410;-71
2022/12/02 15:29:35;;;;;;;;;;;;;;;2.19;100.00;101131.31;5589685;31;34249;-71
2022/12/02 15:32:39;;;;;;;;;;;;;;;2.17;100.00;101132.37;5589532;31;34817;-71
2022/12/02 15:35:43;;;;;;;;;;;;;;;2.08;100.00;101135.56;5575364;31;34665;-71
2022/12/02 15:38:47;;;;;;;;;;;;;;;1.94;100.00;101140.78;5576151;31;34785;-71
2022/12/02 15:41:51;;;;;;;;;;;;;;;1.96;100.00;101146.75;5575189;31;35386;-71
2022/12/02 15:44:57;;;;;;;;;;;;;;;1.93;100.00;101149.59;5589580;31;34103;-71
2022/12/02 15:48:03;;;;;;;;;;;;;;;1.88;100.00;101133.31;5588201;31;34211;-70
2022/12/02 15:51:10;;;;;;;;;;;;;;;1.87;100.00;101144.72;5589495;31;34435;-70
2022/12/02 15:54:16;;;;;;;;;;;;;;;1.98;100.00;101144.91;5589799;31;34289;-70
2022/12/02 15:57:22;;;;;;;;;;;;;;;1.90;100.00;101147.12;5589068;31;34451;-69
2022/12/02 16:00:25;;;;;;;;;;;;;;;1.96;100.00;101147.59;5562156;31;34830;-69
2022/12/02 16:03:31;;;;;;;;;;;;;;;1.92;100.00;101148.75;5589038;31;34866;-70
2022/12/02 16:06:35;;;;;;;;;;;;;;;1.93;100.00;101152.19;5589077;31;34990;-70